sensor_id;sensor_type;location;lat;lon;timestamp;P1;durP1;ratioP1;P2;durP2;ratioP2
36001;SDS011;22070;50.922;5.430;2022-10-31T16:25:18;15.00;;;4.13;;
36001;SDS011;22070;50.922;5.430;2022-10-31T16:27:54;13.45;;;4.13;;
36001;SDS011;22070;50.922;5.430;2022-10-31T16:33:20;10.88;;;3.42;;
36001;SDS011;22070;50.922;5.430;2022-10-31T16:35:46;9.82;;;4.15;;
36001;SDS011;22070;50.922;5.430;2022-10-31T16:38:13;10.48;;;4.13;;
36001;SDS011;22070;50.922;5.430;2022-10-31T16:40:38;13.73;;;3.95;;
36001;SDS011;22070;50.922;5.430;2022-10-31T16:43:04;11.47;;;3.97;;
36001;SDS011;22070;50.922;5.430;2022-10-31T16:45:34;10.48;;;3.70;;
36001;SDS011;22070;50.922;5.430;2022-10-31T16:48:03;9.57;;;3.47;;
36001;SDS011;22070;50.922;5.430;2022-10-31T16:50:31;12.50;;;3.35;;
36001;SDS011;22070;50.922;5.430;2022-10-31T16:55:23;15.40;;;3.57;;
36001;SDS011;22070;50.922;5.430;2022-10-31T16:57:50;11.97;;;3.57;;
36001;SDS011;22070;50.922;5.430;2022-10-31T17:00:23;12.88;;;3.55;;
36001;SDS011;22070;50.922;5.430;2022-10-31T17:02:51;8.30;;;3.55;;
36001;SDS011;22070;50.922;5.430;2022-10-31T17:05:19;8.55;;;4.65;;
36001;SDS011;22070;50.922;5.430;2022-10-31T17:07:46;15.10;;;4.50;;
36001;SDS011;22070;50.922;5.430;2022-10-31T17:15:06;12.35;;;4.20;;
36001;SDS011;22070;50.922;5.430;2022-10-31T17:17:39;10.40;;;4.30;;
36001;SDS011;22070;50.922;5.430;2022-10-31T17:20:38;13.23;;;4.67;;
36001;SDS011;22070;50.922;5.430;2022-10-31T17:22:57;13.23;;;3.72;;
36001;SDS011;22070;50.922;5.430;2022-10-31T17:25:24;7.45;;;4.35;;
36001;SDS011;22070;50.922;5.430;2022-10-31T17:27:52;8.80;;;4.43;;
36001;SDS011;22070;50.922;5.430;2022-10-31T17:30:18;13.50;;;4.43;;
36001;SDS011;22070;50.922;5.430;2022-10-31T17:32:45;15.27;;;6.35;;
36001;SDS011;22070;50.922;5.430;2022-10-31T17:35:12;30.65;;;12.18;;
36001;SDS011;22070;50.922;5.430;2022-10-31T17:37:39;22.00;;;10.80;;
36001;SDS011;22070;50.922;5.430;2022-10-31T17:40:07;24.70;;;10.65;;
36001;SDS011;22070;50.922;5.430;2022-10-31T17:42:36;19.85;;;10.23;;
36001;SDS011;22070;50.922;5.430;2022-10-31T17:45:02;18.23;;;8.53;;
36001;SDS011;22070;50.922;5.430;2022-10-31T17:47:28;16.42;;;7.82;;
36001;SDS011;22070;50.922;5.430;2022-10-31T17:49:54;16.77;;;7.73;;
36001;SDS011;22070;50.922;5.430;2022-10-31T17:52:20;14.40;;;7.00;;
36001;SDS011;22070;50.922;5.430;2022-10-31T17:54:45;13.43;;;6.87;;
36001;SDS011;22070;50.922;5.430;2022-10-31T17:57:11;18.23;;;6.70;;
36001;SDS011;22070;50.922;5.430;2022-10-31T17:59:37;21.97;;;9.27;;
36001;SDS011;22070;50.922;5.430;2022-10-31T18:02:02;20.93;;;9.10;;
36001;SDS011;22070;50.922;5.430;2022-10-31T18:04:33;18.98;;;7.85;;
36001;SDS011;22070;50.922;5.430;2022-10-31T18:06:59;16.95;;;8.25;;
36001;SDS011;22070;50.922;5.430;2022-10-31T18:09:25;19.50;;;9.57;;
36001;SDS011;22070;50.922;5.430;2022-10-31T18:11:50;13.43;;;7.00;;
36001;SDS011;22070;50.922;5.430;2022-10-31T18:14:16;13.80;;;6.80;;
36001;SDS011;22070;50.922;5.430;2022-10-31T18:16:41;12.63;;;6.50;;
36001;SDS011;22070;50.922;5.430;2022-10-31T18:19:10;12.03;;;7.10;;
36001;SDS011;22070;50.922;5.430;2022-10-31T18:21:37;15.13;;;7.60;;
36001;SDS011;22070;50.922;5.430;2022-10-31T18:24:03;13.97;;;7.57;;
36001;SDS011;22070;50.922;5.430;2022-10-31T18:26:29;17.63;;;8.10;;
36001;SDS011;22070;50.922;5.430;2022-10-31T18:28:54;20.20;;;7.97;;
36001;SDS011;22070;50.922;5.430;2022-10-31T18:31:20;17.17;;;8.27;;
36001;SDS011;22070;50.922;5.430;2022-10-31T18:33:46;18.03;;;8.10;;
36001;SDS011;22070;50.922;5.430;2022-10-31T18:36:12;16.27;;;7.03;;
36001;SDS011;22070;50.922;5.430;2022-10-31T18:38:38;15.17;;;7.10;;
36001;SDS011;22070;50.922;5.430;2022-10-31T18:41:06;14.93;;;7.57;;
36001;SDS011;22070;50.922;5.430;2022-10-31T18:43:32;13.65;;;6.63;;
36001;SDS011;22070;50.922;5.430;2022-10-31T18:46:02;18.63;;;6.40;;
36001;SDS011;22070;50.922;5.430;2022-10-31T18:48:29;11.48;;;6.45;;
36001;SDS011;22070;50.922;5.430;2022-10-31T18:50:56;16.75;;;6.60;;
36001;SDS011;22070;50.922;5.430;2022-10-31T18:55:48;13.27;;;5.65;;
36001;SDS011;22070;50.922;5.430;2022-10-31T18:58:13;22.43;;;6.13;;
36001;SDS011;22070;50.922;5.430;2022-10-31T19:00:39;12.93;;;5.67;;
36001;SDS011;22070;50.922;5.430;2022-10-31T19:03:05;14.67;;;5.87;;
36001;SDS011;22070;50.922;5.430;2022-10-31T19:05:31;11.77;;;5.60;;
36001;SDS011;22070;50.922;5.430;2022-10-31T19:07:56;12.73;;;6.17;;
36001;SDS011;22070;50.922;5.430;2022-10-31T19:10:22;10.60;;;5.40;;
36001;SDS011;22070;50.922;5.430;2022-10-31T19:12:48;17.83;;;6.47;;
36001;SDS011;22070;50.922;5.430;2022-10-31T19:15:13;12.03;;;5.87;;
36001;SDS011;22070;50.922;5.430;2022-10-31T19:17:39;12.40;;;5.88;;
36001;SDS011;22070;50.922;5.430;2022-10-31T19:20:05;18.73;;;6.20;;
36001;SDS011;22070;50.922;5.430;2022-10-31T19:22:31;10.57;;;5.30;;
36001;SDS011;22070;50.922;5.430;2022-10-31T19:24:57;16.47;;;6.23;;
36001;SDS011;22070;50.922;5.430;2022-10-31T19:27:22;11.80;;;6.13;;
36001;SDS011;22070;50.922;5.430;2022-10-31T19:29:51;12.82;;;6.00;;
36001;SDS011;22070;50.922;5.430;2022-10-31T19:32:17;10.83;;;6.07;;
36001;SDS011;22070;50.922;5.430;2022-10-31T19:34:42;16.67;;;6.03;;
36001;SDS011;22070;50.922;5.430;2022-10-31T19:37:09;14.23;;;6.18;;
36001;SDS011;22070;50.922;5.430;2022-10-31T19:39:35;16.40;;;5.80;;
36001;SDS011;22070;50.922;5.430;2022-10-31T19:42:00;13.23;;;5.88;;
36001;SDS011;22070;50.922;5.430;2022-10-31T19:44:26;10.87;;;5.73;;
36001;SDS011;22070;50.922;5.430;2022-10-31T19:46:55;11.18;;;5.63;;
36001;SDS011;22070;50.922;5.430;2022-10-31T19:49:21;12.48;;;5.65;;
36001;SDS011;22070;50.922;5.430;2022-10-31T19:51:47;14.73;;;6.03;;
36001;SDS011;22070;50.922;5.430;2022-10-31T19:54:13;13.30;;;6.03;;
36001;SDS011;22070;50.922;5.430;2022-10-31T19:56:39;13.63;;;5.60;;
36001;SDS011;22070;50.922;5.430;2022-10-31T19:59:05;8.37;;;5.07;;
36001;SDS011;22070;50.922;5.430;2022-10-31T20:01:30;20.70;;;8.23;;
36001;SDS011;22070;50.922;5.430;2022-10-31T20:03:56;17.10;;;9.40;;
36001;SDS011;22070;50.922;5.430;2022-10-31T20:06:23;21.00;;;9.77;;
36001;SDS011;22070;50.922;5.430;2022-10-31T20:08:54;15.57;;;8.10;;
36001;SDS011;22070;50.922;5.430;2022-10-31T20:11:21;14.63;;;7.13;;
36001;SDS011;22070;50.922;5.430;2022-10-31T20:13:47;17.20;;;7.07;;
36001;SDS011;22070;50.922;5.430;2022-10-31T20:16:13;12.13;;;5.82;;
36001;SDS011;22070;50.922;5.430;2022-10-31T20:18:40;13.43;;;6.10;;
36001;SDS011;22070;50.922;5.430;2022-10-31T20:23:34;11.82;;;5.30;;
36001;SDS011;22070;50.922;5.430;2022-10-31T20:26:00;10.07;;;3.90;;
36001;SDS011;22070;50.922;5.430;2022-10-31T20:28:28;16.50;;;4.90;;
36001;SDS011;22070;50.922;5.430;2022-10-31T20:30:54;12.15;;;4.88;;
36001;SDS011;22070;50.922;5.430;2022-10-31T20:33:20;12.70;;;4.70;;
36001;SDS011;22070;50.922;5.430;2022-10-31T20:35:46;11.60;;;4.77;;
36001;SDS011;22070;50.922;5.430;2022-10-31T20:38:12;11.77;;;4.80;;
36001;SDS011;22070;50.922;5.430;2022-10-31T20:40:37;17.67;;;4.40;;
36001;SDS011;22070;50.922;5.430;2022-10-31T20:43:03;14.63;;;4.30;;
36001;SDS011;22070;50.922;5.430;2022-10-31T20:45:30;10.07;;;4.13;;
36001;SDS011;22070;50.922;5.430;2022-10-31T20:47:56;8.68;;;3.33;;
36001;SDS011;22070;50.922;5.430;2022-10-31T20:50:22;10.55;;;4.43;;
36001;SDS011;22070;50.922;5.430;2022-10-31T20:52:49;11.32;;;4.18;;
36001;SDS011;22070;50.922;5.430;2022-10-31T20:55:15;12.88;;;4.53;;
36001;SDS011;22070;50.922;5.430;2022-10-31T20:57:41;12.43;;;5.10;;
36001;SDS011;22070;50.922;5.430;2022-10-31T21:00:06;11.30;;;4.25;;
36001;SDS011;22070;50.922;5.430;2022-10-31T21:02:35;14.43;;;4.60;;
36001;SDS011;22070;50.922;5.430;2022-10-31T21:05:03;11.75;;;4.57;;
36001;SDS011;22070;50.922;5.430;2022-10-31T21:07:32;10.80;;;4.28;;
36001;SDS011;22070;50.922;5.430;2022-10-31T21:09:57;5.17;;;2.90;;
36001;SDS011;22070;50.922;5.430;2022-10-31T21:12:23;12.10;;;4.60;;
36001;SDS011;22070;50.922;5.430;2022-10-31T21:14:49;11.93;;;4.30;;
36001;SDS011;22070;50.922;5.430;2022-10-31T21:17:14;10.67;;;4.07;;
36001;SDS011;22070;50.922;5.430;2022-10-31T21:19:40;11.13;;;3.90;;
36001;SDS011;22070;50.922;5.430;2022-10-31T21:22:05;11.83;;;4.07;;
36001;SDS011;22070;50.922;5.430;2022-10-31T21:24:31;11.83;;;4.20;;
36001;SDS011;22070;50.922;5.430;2022-10-31T21:26:57;11.73;;;5.20;;
36001;SDS011;22070;50.922;5.430;2022-10-31T21:29:22;13.03;;;4.67;;
36001;SDS011;22070;50.922;5.430;2022-10-31T21:31:48;13.43;;;4.70;;
36001;SDS011;22070;50.922;5.430;2022-10-31T21:34:14;12.70;;;4.20;;
36001;SDS011;22070;50.922;5.430;2022-10-31T21:36:40;20.00;;;4.40;;
36001;SDS011;22070;50.922;5.430;2022-10-31T21:39:06;11.37;;;4.63;;
36001;SDS011;22070;50.922;5.430;2022-10-31T21:41:33;8.02;;;4.22;;
36001;SDS011;22070;50.922;5.430;2022-10-31T21:43:59;9.73;;;4.00;;
36001;SDS011;22070;50.922;5.430;2022-10-31T21:46:26;13.90;;;4.57;;
36001;SDS011;22070;50.922;5.430;2022-10-31T21:48:53;9.77;;;3.88;;
36001;SDS011;22070;50.922;5.430;2022-10-31T21:51:21;11.10;;;4.03;;
36001;SDS011;22070;50.922;5.430;2022-10-31T21:53:48;12.52;;;4.13;;
36001;SDS011;22070;50.922;5.430;2022-10-31T21:56:33;12.23;;;4.13;;
36001;SDS011;22070;50.922;5.430;2022-10-31T21:58:59;13.73;;;4.68;;
36001;SDS011;22070;50.922;5.430;2022-10-31T22:01:26;19.73;;;4.57;;
36001;SDS011;22070;50.922;5.430;2022-10-31T22:03:53;9.52;;;4.40;;
36001;SDS011;22070;50.922;5.430;2022-10-31T22:06:19;13.38;;;5.35;;
36001;SDS011;22070;50.922;5.430;2022-10-31T22:08:45;13.45;;;4.55;;
36001;SDS011;22070;50.922;5.430;2022-10-31T22:11:15;10.93;;;4.80;;
36001;SDS011;22070;50.922;5.430;2022-10-31T22:13:42;9.07;;;4.10;;
36001;SDS011;22070;50.922;5.430;2022-10-31T22:16:11;16.20;;;4.63;;
36001;SDS011;22070;50.922;5.430;2022-10-31T22:18:38;18.25;;;4.97;;
36001;SDS011;22070;50.922;5.430;2022-10-31T22:21:09;10.63;;;5.03;;
36001;SDS011;22070;50.922;5.430;2022-10-31T22:23:36;13.60;;;4.45;;
36001;SDS011;22070;50.922;5.430;2022-10-31T22:26:02;16.20;;;4.83;;
36001;SDS011;22070;50.922;5.430;2022-10-31T22:28:29;14.75;;;5.40;;
36001;SDS011;22070;50.922;5.430;2022-10-31T22:30:54;14.48;;;4.60;;
36001;SDS011;22070;50.922;5.430;2022-10-31T22:33:20;15.07;;;4.97;;
36001;SDS011;22070;50.922;5.430;2022-10-31T22:35:46;13.27;;;4.63;;
36001;SDS011;22070;50.922;5.430;2022-10-31T22:38:12;16.97;;;4.80;;
36001;SDS011;22070;50.922;5.430;2022-10-31T22:40:37;13.30;;;4.27;;
36001;SDS011;22070;50.922;5.430;2022-10-31T22:43:03;9.90;;;4.37;;
36001;SDS011;22070;50.922;5.430;2022-10-31T22:45:28;18.53;;;4.67;;
36001;SDS011;22070;50.922;5.430;2022-10-31T22:47:54;13.67;;;4.37;;
36001;SDS011;22070;50.922;5.430;2022-10-31T22:50:19;20.57;;;4.40;;
36001;SDS011;22070;50.922;5.430;2022-10-31T22:52:45;14.60;;;4.60;;
36001;SDS011;22070;50.922;5.430;2022-10-31T22:55:11;14.00;;;4.70;;
36001;SDS011;22070;50.922;5.430;2022-10-31T22:57:39;13.07;;;4.30;;
36001;SDS011;22070;50.922;5.430;2022-10-31T23:00:05;13.60;;;4.47;;
36001;SDS011;22070;50.922;5.430;2022-10-31T23:02:32;11.05;;;4.72;;
36001;SDS011;22070;50.922;5.430;2022-10-31T23:04:58;11.80;;;4.38;;
36001;SDS011;22070;50.922;5.430;2022-10-31T23:07:24;10.90;;;4.30;;
36001;SDS011;22070;50.922;5.430;2022-10-31T23:09:49;11.83;;;4.60;;
36001;SDS011;22070;50.922;5.430;2022-10-31T23:12:15;11.53;;;3.63;;
36001;SDS011;22070;50.922;5.430;2022-10-31T23:15:00;15.30;;;4.95;;
36001;SDS011;22070;50.922;5.430;2022-10-31T23:17:26;16.10;;;4.70;;
36001;SDS011;22070;50.922;5.430;2022-10-31T23:19:52;10.80;;;3.97;;
36001;SDS011;22070;50.922;5.430;2022-10-31T23:22:17;9.20;;;3.80;;
36001;SDS011;22070;50.922;5.430;2022-10-31T23:24:44;8.27;;;4.27;;
36001;SDS011;22070;50.922;5.430;2022-10-31T23:29:47;10.98;;;4.10;;
36001;SDS011;22070;50.922;5.430;2022-10-31T23:32:17;12.00;;;4.22;;
36001;SDS011;22070;50.922;5.430;2022-10-31T23:34:52;15.63;;;4.30;;
36001;SDS011;22070;50.922;5.430;2022-10-31T23:37:21;13.25;;;4.05;;
36001;SDS011;22070;50.922;5.430;2022-10-31T23:39:48;15.82;;;3.85;;
36001;SDS011;22070;50.922;5.430;2022-10-31T23:42:14;11.13;;;4.07;;
36001;SDS011;22070;50.922;5.430;2022-10-31T23:44:40;10.87;;;3.20;;
36001;SDS011;22070;50.922;5.430;2022-10-31T23:47:06;8.25;;;3.90;;
36001;SDS011;22070;50.922;5.430;2022-10-31T23:49:32;8.03;;;2.93;;
36001;SDS011;22070;50.922;5.430;2022-10-31T23:51:58;14.40;;;4.37;;
36001;SDS011;22070;50.922;5.430;2022-10-31T23:54:24;10.00;;;4.07;;
36001;SDS011;22070;50.922;5.430;2022-10-31T23:56:50;11.30;;;3.90;;
36001;SDS011;22070;50.922;5.430;2022-10-31T23:59:16;13.80;;;4.00;;
